• Join FlightAware (Why Join?)
  • Login
  • US Flag 
01:51AM EDT


 

Airport Tracker/Info


-or-


 

Live Flight TrackerFlight Track Log ✈ N777JE ✈ 10-May-2012 ✈ KFFC - KHNB

Flight Track Log - Related Links

Times and Time Zones

All times are in EDT time to prevent confusion due to time zone crossing. See the N777JE flight status page for this flight to view local times or setup timezone preferences in your user account.

Time Position Orientation Groundspeed Altitude Reporting Facility
EDT Latitude Longitude Course Direction KTS MPH feet Rate Location/Type
03:05PM 33.3500 -84.6833 315° West 163 188 5,000  Level Atlanta TRACON
03:10PM 33.5333 -84.9000 360° North 244 281 7,000 300 Climbing Atlanta TRACON
03:11PM 33.6000 -84.9000 360° North 243 280 7,000  Level Atlanta TRACON
03:12PM 33.6667 -84.9000 12° North 247 284 7,000  Level Atlanta TRACON
03:13PM 33.7333 -84.8833 12° North 248 285 7,000 240 Level Atlanta TRACON
03:14PM 33.8000 -84.8667 29° Northeast 250 288 7,500 900 Climbing Atlanta TRACON
03:15PM 33.8500 -84.8333 23° Northeast 220 253 8,800 660 Climbing Atlanta TRACON
03:16PM 33.9167 -84.8000 12° North 243 280 9,000 60 Climbing Atlanta TRACON
03:17PM 33.9819 -84.7828 22° Northeast 252 290 9,000  Level Atlanta Center
03:18PM 34.0489 -84.7508 20° North 257 296 9,000 240 Level Atlanta Center
03:19PM 34.1097 -84.7236 22° Northeast 284 327 9,500 660 Climbing Atlanta Center
03:20PM 34.1703 -84.6942 20° North 251 289 10,400 720 Climbing Atlanta Center
03:21PM 34.2308 -84.6669 21° North 231 266 11,000 300 Climbing Atlanta Center
03:22PM 34.2894 -84.6397 342° North 231 266 11,000 180 Level Atlanta Center
03:23PM 34.3561 -84.6653 336° Northwest 244 281 11,400 960 Climbing Atlanta Center
03:24PM 34.4083 -84.6933 333° Northwest 224 258 13,000 1,200 Climbing Atlanta Center
03:25PM 34.4497 -84.7189 336° Northwest 208 239 13,900 1,140 Climbing Atlanta Center
03:26PM 34.5164 -84.7547 336° Northwest 208 239 15,300 1,260 Climbing Atlanta Center
03:27PM 34.5683 -84.7831 341° North 208 239 16,500 1,200 Climbing Atlanta Center
03:28PM 34.6247 -84.8061 344° North 208 239 17,700 1,140 Climbing Atlanta Center
03:29PM 34.6789 -84.8244 348° North 207 238 18,800 960 Climbing Atlanta Center
03:30PM 34.7372 -84.8400 335° Northwest 207 238 19,700 840 Climbing Atlanta Center
03:31PM 34.7911 -84.8708 337° Northwest 207 238 20,500 900 Climbing Atlanta Center
03:32PM 34.8453 -84.8992 333° Northwest 214 246 21,500 900 Climbing Atlanta Center
03:33PM 34.8992 -84.9328 337° Northwest 214 246 22,300 720 Climbing Atlanta Center
03:34PM 34.9533 -84.9611 333° Northwest 214 246 23,000 600 Climbing Atlanta Center
03:35PM 35.0072 -84.9947 334° Northwest 214 246 23,600 480 Climbing Atlanta Center
03:36PM 35.0633 -85.0283 335° Northwest 214 246 24,000 180 Climbing Atlanta Center
03:37PM 35.1236 -85.0622 336° Northwest 219 252 24,000  Level Atlanta Center
03:38PM 35.1858 -85.0958 333° Northwest 230 265 24,000  Level Atlanta Center
03:39PM 35.2481 -85.1350 336° Northwest 230 265 24,000  Level Atlanta Center
03:40PM 35.3083 -85.1686 334° Northwest 230 265 24,000  Level Atlanta Center
03:42PM 35.3994 -85.2222 336° Northwest 249 287 24,000  Level Memphis Center
03:43PM 35.4614 -85.2567 334° Northwest 243 280 24,000  Level Memphis Center
03:44PM 35.5192 -85.2914 333° Northwest 243 280 24,000  Level Memphis Center
03:45PM 35.5792 -85.3283 336° Northwest 243 280 24,000  Level Memphis Center
03:46PM 35.6389 -85.3606 334° Northwest 243 280 24,000  Level Memphis Center
03:47PM 35.6964 -85.3953 333° Northwest 243 280 24,000  Level Memphis Center
03:48PM 35.7564 -85.4328 336° Northwest 243 280 24,000  Level Memphis Center
03:49PM 35.8139 -85.4650 335° Northwest 238 274 24,000  Level Memphis Center
03:50PM 35.8736 -85.5000 334° Northwest 238 274 24,000  Level Memphis Center
03:51PM 35.9314 -85.5350 333° Northwest 238 274 24,000  Level Memphis Center
03:52PM 35.9956 -85.5747 335° Northwest 233 268 24,000  Level Memphis Center
03:53PM 36.0531 -85.6075 335° Northwest 233 268 24,000  Level Memphis Center
03:54PM 36.1128 -85.6425 334° Northwest 233 268 24,000  Level Memphis Center
03:55PM 36.1703 -85.6778 335° Northwest 233 268 24,000  Level Memphis Center
03:56PM 36.2300 -85.7131 334° Northwest 233 268 24,000  Level Memphis Center
03:57PM 36.2875 -85.7483 335° Northwest 233 268 24,000  Level Memphis Center
03:58PM 36.3472 -85.7836 336° Northwest 233 268 24,000  Level Memphis Center
03:59PM 36.4069 -85.8161 334° Northwest 233 268 24,000  Level Memphis Center
04:00PM 36.4664 -85.8517 335° Northwest 233 268 24,000  Level Memphis Center
04:01PM 36.5239 -85.8844 334° Northwest 233 268 24,000 -540 Level Memphis Center
04:02PM 36.5858 -85.9225 333° Northwest 233 268 23,000 -1,020 Descending Memphis Center
04:03PM 36.6539 -85.9653 334° Northwest 260 299 22,000 -540 Descending Memphis Center
04:04PM 36.7117 -86.0008 335° Northwest 260 299 22,000  Level Memphis Center
04:05PM 36.7733 -86.0364 333° Northwest 254 292 22,000  Level Memphis Center
04:06PM 36.8328 -86.0747 334° Northwest 249 287 22,000 -60 Level Memphis Center
04:07PM 36.8925 -86.1106 334° Northwest 244 281 21,900 -540 Descending Memphis Center
04:08PM 36.9583 -86.1511 334° Northwest 249 287 21,000 -780 Descending Memphis Center
04:10PM 37.1050 -86.2392 334° Northwest 269 310 19,300 -840 Descending Indianapolis Center
04:11PM 37.1872 -86.2892 334° Northwest 269 310 18,300 -900 Descending Indianapolis Center
04:12PM 37.2508 -86.3281 333° Northwest 263 303 17,500 -900 Descending Indianapolis Center
04:13PM 37.3186 -86.3722 333° Northwest 263 303 16,500 -1,020 Descending Indianapolis Center
04:14PM 37.3844 -86.4139 335° Northwest 258 297 15,500 -1,020 Descending Indianapolis Center
04:15PM 37.4522 -86.4533 333° Northwest 264 304 14,500 -1,020 Descending Indianapolis Center
04:16PM 37.5181 -86.4950 334° Northwest 264 304 13,500 -1,020 Descending Indianapolis Center
04:17PM 37.5778 -86.5314 335° Northwest 264 304 12,500 -1,020 Descending Indianapolis Center
04:18PM 37.6456 -86.5708 337° Northwest 264 304 11,500 -780 Descending Indianapolis Center
04:19PM 37.7092 -86.6050 338° Northwest 254 292 11,000 -300 Descending Indianapolis Center
04:20PM 37.7711 -86.6364 338° Northwest 254 292 11,000 -240 Level Indianapolis Center
04:21PM 37.8328 -86.6681 339° North 244 281 10,600 -960 Descending Indianapolis Center
04:22PM 37.8986 -86.6997 338° Northwest 244 281 9,100 -1,500 Descending Indianapolis Center
04:23PM 37.9708 -86.7369 338° Northwest 258 297 7,600 -1,560 Descending Indianapolis Center
04:24PM 38.0364 -86.7714 337° Northwest 264 304 6,000 -1,560 Descending Indianapolis Center
04:25PM 38.1022 -86.8061 340° North 254 292 4,500 -1,080 Descending Indianapolis Center
04:26PM 38.1581 -86.8322 309° West 234 269 3,900 -600 Descending Indianapolis Center
04:36PM 38.2333 -86.9500 350° North  Level FlightAware Approximate
04:37PM 38.2951 -86.9646 350° North  Level Estimated